Latest Weather Observations for Cape Willoughby

IDS60801

Issued at 1:31 am CST Monday 3 August 2015 (issued every 30 minutes, with the page automatically refreshed every 10 minutes)

About weather observations | Map of weather stations | Latest weather observations for SA | Other Formats
Station Details ID: 022803 Name: CAPE WILLOUGHBY Lat: -35.84 Lon: 138.13 Height: 55.0 m
Data from the previous 72 hours. | See also: Recent months at Cape Willoughby
Date/Time
CST
Temp
°C
App
Temp
°C
Dew
Point
Rel
Hum
%
Delta-T
°C
Wind Press
QNH
hPa
Press
MSL
hPa
Rain
since 9 am
mm
Dir
 
Spd
km/h
Gust
km/h
Spd
kts
Gust
kts
03/01:30am 11.0 3.7 8.6 85 1.2 WSW 37 50 20 27 1021.1 1021.1 1.4
03/01:27am 10.9 3.5 8.5 85 1.2 WSW 37 50 20 27 1021.0 1021.0 1.4
03/01:00am 10.2 4.9 8.3 88 0.9 WNW 26 35 14 19 1020.9 1020.9 1.4
03/12:30am 9.9 5.7 8.3 90 0.8 W 20 26 11 14 1021.0 1021.0 1.2
03/12:00am 10.4 4.7 8.2 86 1.1 W 28 43 15 23 1021.2 1021.2 0.6
 
Date/Time
CST
Temp
°C
App
Temp
°C
Dew
Point
Rel
Hum
%
Delta-T
°C
Wind Press
QNH
hPa
Press
MSL
hPa
Rain
since 9 am
mm
Dir
 
Spd
km/h
Gust
km/h
Spd
kts
Gust
kts
02/11:30pm 10.4 5.0 8.0 85 1.2 WNW 26 35 14 19 1020.8 1020.8 0.4
02/11:00pm 10.6 4.8 8.0 84 1.3 WNW 28 35 15 19 1021.0 1021.0 0.4
02/10:30pm 10.4 5.3 7.8 84 1.3 WNW 24 32 13 17 1020.9 1020.9 0.4
02/10:00pm 10.5 5.4 7.7 83 1.4 WNW 24 32 13 17 1021.1 1021.1 0.4
02/09:30pm 10.2 4.6 7.3 82 1.4 WNW 26 33 14 18 1020.9 1020.9 0.4
02/09:00pm 10.2 5.2 6.5 78 1.7 NW 22 30 12 16 1020.7 1020.7 0.4
02/08:30pm 10.6 5.3 6.6 76 1.9 WNW 24 35 13 19 1020.6 1020.6 0.4
02/08:00pm 10.6 6.1 6.2 74 2.1 WNW 19 26 10 14 1020.5 1020.5 0.4
02/07:30pm 11.6 6.9 6.1 69 2.6 W 20 28 11 15 1020.3 1020.3 0.4
02/07:00pm 11.8 4.6 5.7 66 2.8 WSW 33 50 18 27 1019.8 1019.9 0.4
02/06:47pm 12.0 4.9 5.6 65 3.0 WSW 32 50 17 27 1019.8 1019.9 0.4
02/06:30pm 11.8 5.2 5.9 67 2.8 W 30 44 16 24 1019.6 1019.7 0.4
02/06:00pm 11.6 4.9 5.7 67 2.7 W 30 39 16 21 1019.2 1019.3 0.4
02/05:46pm 11.7 4.4 5.3 65 3.0 W 33 52 18 28 1019.2 1019.3 0.4
02/05:30pm 12.4 4.2 6.5 67 2.8 W 39 54 21 29 1018.9 1019.0 0.4
02/05:13pm 12.3 5.4 7.4 72 2.4 WSW 33 52 18 28 1018.7 1018.8 0.4
02/05:00pm 12.5 5.8 7.4 71 2.5 WSW 32 44 17 24 1018.5 1018.6 0.4
02/04:30pm 12.7 5.7 7.0 68 2.7 WSW 33 43 18 23 1018.4 1018.5 0.4
02/04:04pm 13.1 6.2 7.1 67 2.9 WSW 33 56 18 30 1018.2 1018.3 0.4
02/04:00pm 12.9 5.2 6.9 67 2.9 WSW 37 52 20 28 1018.2 1018.3 0.4
02/03:34pm 12.6 6.9 8.5 76 2.0 W 28 46 15 25 1018.2 1018.3 0.4
02/03:30pm 12.7 6.7 8.8 77 2.0 W 30 46 16 25 1018.2 1018.3 0.4
02/03:14pm 12.2 5.3 9.0 81 1.6 W 35 54 19 29 1018.1 1018.2 0.4
02/03:00pm 12.6 6.1 9.1 79 1.8 WSW 33 50 18 27 1018.0 1018.1 0.2
02/02:30pm 12.9 4.7 8.0 72 2.4 W 41 61 22 33 1017.8 1017.9 0.2
02/02:04pm 12.7 5.0 8.6 76 2.0 WSW 39 57 21 31 1017.6 1017.7 0.2
02/02:00pm 12.6 4.4 8.3 75 2.1 WSW 41 57 22 31 1017.5 1017.6 0.2
02/01:34pm 13.7 5.6 7.2 65 3.2 W 39 65 21 35 1017.5 1017.6 0.2
02/01:30pm 13.9 6.1 8.3 69 2.8 W 39 54 21 29 1017.7 1017.8 0.2
02/01:00pm 13.4 6.6 7.6 68 2.9 W 33 46 18 25 1017.6 1017.7 0.2
02/12:30pm 13.0 6.3 8.3 73 2.3 W 33 50 18 27 1017.9 1018.0 0.2
02/12:00pm 11.3 3.9 8.5 83 1.4 W 37 59 20 32 1018.3 1018.4 0.2
02/11:51am 12.6 4.7 7.9 73 2.3 W 39 59 21 32 1018.5 1018.6 0.0
02/11:30am 13.4 5.7 7.0 65 3.1 W 37 50 20 27 1018.3 1018.4 0.0
02/11:11am 12.8 4.7 6.8 67 2.9 W 39 57 21 31 1018.3 1018.4 0.0
02/11:00am 12.9 5.7 7.6 70 2.6 W 35 50 19 27 1018.6 1018.7 0.0
02/10:42am 12.6 5.3 7.1 69 2.7 W 35 59 19 32 1018.4 1018.5 0.0
02/10:30am 12.4 5.5 7.3 71 2.5 W 33 46 18 25 1018.5 1018.6 0.0
02/10:00am 11.8 5.8 7.1 73 2.3 WNW 28 37 15 20 1018.5 1018.6 0.0
02/09:30am 11.2 5.6 7.1 76 2.0 W 26 41 14 22 1018.4 1018.5 0.0
02/09:00am 10.3 3.9 6.8 79 1.6 WNW 30 43 16 23 1018.4 1018.5 0.0
02/08:30am 9.3 2.3 6.2 81 1.4 WNW 32 43 17 23 1018.2 1018.3 0.0
02/08:00am 7.8 1.4 5.1 83 1.2 WNW 28 33 15 18 1018.2 1018.3 0.0
02/07:30am 7.2 1.0 4.5 83 1.2 WNW 26 32 14 17 1018.0 1018.1 0.0
02/07:00am 7.1 0.5 4.4 83 1.2 WNW 28 35 15 19 1017.8 1017.9 0.0
02/06:30am 6.3 0.4 3.8 84 1.1 WNW 24 28 13 15 1017.5 1017.6 0.0
02/06:00am 6.7 0.4 4.0 83 1.2 WNW 26 32 14 17 1017.3 1017.4 0.0
02/05:30am 6.9 1.4 4.2 83 1.2 WNW 22 30 12 16 1017.3 1017.4 0.0
02/05:00am 6.7 1.2 4.2 84 1.1 WNW 22 26 12 14 1017.2 1017.3 0.0
02/04:30am 6.5 1.4 4.0 84 1.1 WNW 20 26 11 14 1017.1 1017.2 0.0
02/04:00am 7.3 2.2 4.3 81 1.3 WNW 20 24 11 13 1017.5 1017.6 0.0
02/03:30am 7.7 1.9 4.5 80 1.4 WNW 24 32 13 17 1017.6 1017.7 0.0
02/03:00am 7.7 2.6 4.1 78 1.6 WNW 20 26 11 14 1017.8 1017.9 0.0
02/02:30am 8.4 3.4 4.6 77 1.7 WNW 20 26 11 14 1017.7 1017.8 0.0
02/02:00am 8.7 3.3 4.5 75 1.9 W 22 30 12 16 1017.8 1017.9 0.0
02/01:30am 8.4 2.9 3.8 73 2.0 WNW 22 26 12 14 1017.9 1018.0 0.0
02/01:00am 8.6 3.7 4.2 74 1.9 WNW 19 20 10 11 1018.0 1018.1 0.0
02/12:30am 8.7 4.6 4.3 74 1.9 WNW 15 19 8 10 1018.3 1018.4 0.0
02/12:00am 8.7 3.8 4.3 74 1.9 W 19 24 10 13 1018.4 1018.5 0.0
 
Date/Time
CST
Temp
°C
App
Temp
°C
Dew
Point
Rel
Hum
%
Delta-T
°C
Wind Press
QNH
hPa
Press
MSL
hPa
Rain
since 9 am
mm
Dir
 
Spd
km/h
Gust
km/h
Spd
kts
Gust
kts
01/11:30pm 8.5 3.4 3.9 73 2.0 WNW 20 22 11 12 1018.3 1018.4 0.0
01/11:00pm 8.6 4.1 4.0 73 2.0 W 17 20 9 11 1018.4 1018.5 0.0
01/10:30pm 8.6 4.4 4.0 73 2.0 W 15 19 8 10 1018.3 1018.4 0.0
01/10:00pm 8.6 4.5 4.4 75 1.9 WNW 15 17 8 9 1018.4 1018.5 0.0
01/09:30pm 8.8 5.1 4.2 73 2.0 WNW 13 17 7 9 1018.4 1018.5 0.0
01/09:00pm 9.2 4.6 3.8 69 2.4 WNW 17 19 9 10 1018.3 1018.4 0.0
01/08:30pm 9.5 6.3 3.3 65 2.7 WNW 9 13 5 7 1017.9 1018.0 0.0
01/08:00pm 9.6 6.5 3.6 66 2.6 W 9 11 5 6 1017.9 1018.0 0.0
01/07:30pm 9.6 6.0 3.1 64 2.8 WSW 11 13 6 7 1017.7 1017.8 0.0
01/07:00pm 9.7 6.9 3.0 63 2.9 WSW 7 11 4 6 1017.5 1017.6 0.0
01/06:30pm 10.0 7.8 3.3 63 2.9 SSW 4 7 2 4 1016.9 1017.0 0.0
01/06:00pm 10.0 7.7 2.8 61 3.1 SW 4 9 2 5 1017.1 1017.2 0.0
01/05:30pm 10.4 8.2 3.4 62 3.1 SSE 4 9 2 5 1017.0 1017.1 0.0
01/05:00pm 10.5 7.7 3.3 61 3.1 SSE 7 11 4 6 1016.5 1016.6 0.0
01/04:30pm 10.5 7.4 3.5 62 3.1 SE 9 11 5 6 1016.2 1016.3 0.0
01/04:00pm 10.5 7.4 3.8 63 3.0 SSE 9 13 5 7 1016.5 1016.6 0.0
01/03:30pm 10.5 7.0 3.3 61 3.1 SSE 11 15 6 8 1016.1 1016.2 0.0
01/03:00pm 10.6 7.4 2.9 59 3.3 S 9 15 5 8 1016.4 1016.5 0.0
01/02:30pm 10.6 7.3 2.2 56 3.6 S 9 15 5 8 1016.4 1016.5 0.0
01/02:00pm 10.8 7.7 3.6 61 3.2 SSE 9 13 5 7 1016.1 1016.2 0.0
01/01:30pm 10.7 8.1 3.0 59 3.3 S 6 11 3 6 1016.8 1016.9 0.0
01/01:00pm 10.9 7.1 3.7 61 3.2 S 13 20 7 11 1017.3 1017.4 0.0
01/12:30pm 10.8 5.8 3.8 62 3.1 S 19 26 10 14 1017.0 1017.1 0.0
01/12:00pm 10.8 7.1 4.5 65 2.8 SSE 13 19 7 10 1017.5 1017.6 0.0
01/11:30am 10.8 5.9 4.3 64 2.9 S 19 26 10 14 1018.2 1018.3 0.0
01/11:00am 10.8 5.7 2.9 58 3.4 SSE 19 24 10 13 1017.2 1017.3 0.0
01/10:30am 10.7 5.4 3.0 59 3.3 SSE 20 30 11 16 1016.6 1016.7 0.0
01/10:00am 10.9 5.0 4.1 63 3.0 S 24 30 13 16 1017.0 1017.1 0.0
01/09:30am 11.0 4.8 4.5 64 2.9 S 26 33 14 18 1016.8 1016.9 0.0
01/09:00am 11.0 4.4 4.2 63 3.0 S 28 35 15 19 1016.4 1016.5 2.0
01/08:30am 11.1 4.7 5.2 67 2.7 S 28 37 15 20 1016.0 1016.1 2.0
01/08:00am 11.2 5.3 5.9 70 2.5 S 26 35 14 19 1015.8 1015.9 2.0
01/07:30am 11.3 5.2 6.6 73 2.2 SSW 28 35 15 19 1015.8 1015.9 2.0
01/07:00am 11.6 6.4 7.3 75 2.1 S 24 33 13 18 1015.0 1015.0 2.0
01/06:30am 11.4 5.7 6.9 74 2.1 S 26 37 14 20 1014.2 1014.2 2.0
01/06:00am 11.1 4.9 7.8 80 1.6 S 30 46 16 25 1013.7 1013.7 2.0
01/05:30am 11.5 6.3 8.7 83 1.4 SSW 26 41 14 22 1013.4 1013.4 2.0
01/05:03am 11.4 5.3 8.4 82 1.5 S 30 48 16 26 1013.2 1013.2 2.0
01/05:00am 11.6 5.1 8.8 83 1.4 S 33 48 18 26 1013.2 1013.2 2.0
01/04:30am 11.3 5.2 9.6 89 0.9 S 32 46 17 25 1012.5 1012.5 2.0
01/04:02am 10.9 3.6 10.1 95 0.4 S 39 57 21 31 1011.9 1011.9 2.0
01/04:00am 10.7 2.5 9.8 94 0.5 SSW 43 57 23 31 1011.9 1011.9 2.0
01/03:45am 11.6 4.7 10.3 92 0.7 SW 37 59 20 32 1011.7 1011.7 1.8
01/03:30am 11.3 4.4 10.2 93 0.6 SSW 37 48 20 26 1011.7 1011.7 1.8
01/03:00am 11.2 5.1 10.4 95 0.4 SW 33 41 18 22 1012.0 1012.0 1.6
01/02:30am 11.1 2.5 10.3 95 0.4 SW 46 57 25 31 1011.8 1011.8 1.6
01/02:05am 11.9 4.7 10.6 92 0.7 W 39 57 21 31 1011.2 1011.2 1.0
01/02:01am 12.9 7.1 11.5 91 0.7 WNW 33 46 18 25 1011.3 1011.3 0.8
01/02:00am 13.3 7.7 12.0 92 0.7 NW 33 44 18 24 1011.1 1011.1 0.4
01/01:30am 13.4 7.3 11.8 90 0.9 NW 35 46 19 25 1010.2 1010.2 0.0
01/01:00am 13.2 6.7 11.6 90 0.9 NNW 37 46 20 25 1010.2 1010.2 0.0
01/12:30am 13.2 5.9 11.4 89 1.0 NNW 41 56 22 30 1010.3 1010.3 0.0
01/12:00am 13.5 5.8 11.4 87 1.1 NW 43 56 23 30 1010.4 1010.4 0.0
 
Date/Time
CST
Temp
°C
App
Temp
°C
Dew
Point
Rel
Hum
%
Delta-T
°C
Wind Press
QNH
hPa
Press
MSL
hPa
Rain
since 9 am
mm
Dir
 
Spd
km/h
Gust
km/h
Spd
kts
Gust
kts
31/11:30pm 13.2 5.1 10.9 86 1.2 NNW 44 57 24 31 1010.3 1010.3 0.0
31/11:00pm 13.3 6.2 11.0 86 1.2 NNW 39 52 21 28 1010.7 1010.7 0.0
31/10:35pm 13.2 5.7 10.9 86 1.2 NNW 41 61 22 33 1010.7 1010.7 0.0
31/10:30pm 13.2 5.3 10.9 86 1.2 NNW 43 57 23 31 1010.7 1010.7 0.0
31/10:00pm 13.1 6.0 10.8 86 1.2 NNW 39 50 21 27 1011.2 1011.2 0.0
31/09:30pm 13.0 6.3 11.1 88 1.0 NNW 37 48 20 26 1011.4 1011.4 0.0
31/09:00pm 12.9 6.5 10.8 87 1.1 NNW 35 46 19 25 1012.1 1012.1 0.0
31/08:30pm 13.1 6.3 10.6 85 1.3 NNW 37 48 20 26 1012.5 1012.5 0.0
31/08:00pm 13.0 4.8 10.4 84 1.4 NNW 44 56 24 30 1012.5 1012.5 0.0
31/07:30pm 13.0 5.0 10.4 84 1.4 NNW 43 50 23 27 1012.1 1012.1 0.0
31/07:00pm 12.9 4.8 10.1 83 1.4 NNW 43 50 23 27 1012.6 1012.6 0.0
31/06:30pm 12.6 4.8 9.8 83 1.4 NNW 41 48 22 26 1012.5 1012.5 0.0
31/06:00pm 12.4 5.3 9.6 83 1.4 NNW 37 46 20 25 1013.1 1013.1 0.0
31/05:30pm 12.3 5.9 9.3 82 1.5 NNW 33 39 18 21 1013.4 1013.4 0.0
31/05:00pm 12.2 5.4 9.2 82 1.5 NNW 35 43 19 23 1013.2 1013.2 0.0
31/04:30pm 12.2 6.3 9.2 82 1.5 NNW 30 35 16 19 1013.7 1013.7 0.0
31/04:00pm 12.2 6.6 8.9 80 1.7 NNW 28 37 15 20 1014.2 1014.2 0.0
31/03:30pm 12.7 5.8 9.0 78 1.9 NNW 35 44 19 24 1014.7 1014.7 0.0
31/03:00pm 12.7 5.8 8.8 77 2.0 NNW 35 48 19 26 1014.9 1014.9 0.0
31/02:30pm 11.9 5.2 7.2 73 2.3 NNW 32 50 17 27 1015.4 1015.5 0.0
31/02:00pm 12.1 5.7 6.8 70 2.5 NNW 30 37 16 20 1015.3 1015.4 0.0
31/01:30pm 12.0 4.5 6.1 67 2.8 NNW 35 46 19 25 1015.8 1015.9 0.0
31/01:00pm 12.5 5.0 6.3 66 2.9 NNW 35 46 19 25 1016.6 1016.7 0.0
31/12:30pm 12.4 3.6 5.6 63 3.2 NNW 41 52 22 28 1017.1 1017.2 0.0
31/12:00pm 11.6 3.8 5.0 64 3.0 NNW 35 48 19 26 1018.2 1018.3 0.0
31/11:30am 11.8 4.5 5.4 65 3.0 NNW 33 50 18 27 1018.6 1018.7 0.0
31/11:24am 11.7 4.5 5.1 64 3.0 NNW 32 50 17 27 1018.7 1018.8 0.0
31/11:00am 11.3 4.1 5.8 69 2.6 N 33 41 18 22 1019.1 1019.2 0.0
31/10:30am 11.2 5.4 6.1 71 2.4 N 26 33 14 18 1019.7 1019.8 0.0
31/10:00am 10.9 4.8 5.0 67 2.7 N 26 32 14 17 1020.2 1020.2 0.0
31/09:30am 11.0 6.1 5.1 67 2.7 N 20 26 11 14 1020.5 1020.5 0.0
31/09:00am 10.4 5.6 4.5 67 2.6 N 19 24 10 13 1020.8 1020.8 0.4
31/08:30am 10.4 5.3 4.3 66 2.7 N 20 32 11 17 1021.1 1021.1 0.4
31/08:00am 9.0 5.6 3.8 70 2.3 N 11 17 6 9 1021.2 1021.2 0.4
31/07:30am 8.7 5.5 2.9 67 2.5 N 9 11 5 6 1021.4 1021.4 0.4
31/07:00am 8.3 4.9 1.9 64 2.7 NW 9 13 5 7 1021.2 1021.2 0.4
31/06:30am 8.1 4.7 1.7 64 2.6 WNW 9 11 5 6 1021.0 1021.0 0.4
31/06:00am 8.2 4.8 1.8 64 2.6 W 9 11 5 6 1021.0 1021.0 0.4
31/05:30am 8.1 4.3 1.5 63 2.7 W 11 13 6 7 1021.2 1021.2 0.4
31/05:00am 8.7 5.6 1.6 61 2.9 W 7 9 4 5 1021.1 1021.1 0.4
31/04:30am 9.0 6.5 1.4 59 3.1 W 4 6 2 3 1021.1 1021.1 0.4
31/04:00am 8.8 5.7 1.5 60 3.0 W 7 9 4 5 1021.3 1021.3 0.4
31/03:30am 9.0 5.6 1.9 61 2.9 W 9 13 5 7 1021.6 1021.6 0.4
31/03:00am 9.2 5.8 1.9 60 3.0 W 9 11 5 6 1021.6 1021.6 0.4
31/02:30am 9.5 6.7 1.9 59 3.2 W 6 9 3 5 1021.9 1021.9 0.4
31/02:00am 9.8 7.0 1.9 58 3.3 WNW 6 7 3 4 1022.0 1022.0 0.4

Other Formats:

Comma delimited format used in spreadsheet applications
http://www.bom.gov.au/fwo/IDS60801/IDS60801.94822.axf

JavaScript Object Notation format (JSON) in row-major order
http://www.bom.gov.au/fwo/IDS60801/IDS60801.94822.json